Time;durP1;ratioP1;P1;durP2;ratioP2;P2;SDS_P1;SDS_P2;PMS_P1;PMS_P2;Temp;Humidity;BMP_temperature;BMP_pressure;BME280_temperature;BME280_humidity;BME280_pressure;Samples;Min_cycle;Max_cycle;Signal;HPM_P1;HPM_P2
2022/12/13 00:01:37;;;;;;;59.30;33.27;;;;;;;;;;5061101;28;20490;-68
2022/12/13 00:04:04;;;;;;;61.07;31.97;;;;;;;;;;5068575;28;20473;-68
2022/12/13 00:06:31;;;;;;;59.97;33.57;;;;;;;;;;5040249;28;20413;-68
2022/12/13 00:08:57;;;;;;;56.87;34.43;;;;;;;;;;5058391;28;20411;-68
2022/12/13 00:11:23;;;;;;;59.07;33.40;;;;;;;;;;5040510;28;20419;-69
2022/12/13 00:13:49;;;;;;;60.47;33.23;;;;;;;;;;5058475;28;20437;-68
2022/12/13 00:16:16;;;;;;;58.93;33.47;;;;;;;;;;5045091;28;20424;-68
2022/12/13 00:18:42;;;;;;;57.60;32.87;;;;;;;;;;5048893;28;20990;-68
2022/12/13 00:21:11;;;;;;;58.07;31.87;;;;;;;;;;5063481;28;20502;-68
2022/12/13 00:23:37;;;;;;;52.53;30.27;;;;;;;;;;5045260;28;20510;-68
2022/12/13 00:26:04;;;;;;;56.77;32.27;;;;;;;;;;5062905;28;20415;-68
2022/12/13 00:28:30;;;;;;;59.07;33.63;;;;;;;;;;5081105;22;20250;-69
2022/12/13 00:30:57;;;;;;;53.50;32.47;;;;;;;;;;5100595;28;20985;-69
2022/12/13 00:33:23;;;;;;;53.43;31.47;;;;;;;;;;5102976;28;20795;-69
2022/12/13 00:35:49;;;;;;;60.93;33.83;;;;;;;;;;5102936;28;20419;-68
2022/12/13 00:38:15;;;;;;;74.53;43.83;;;;;;;;;;5101387;28;20720;-70
2022/12/13 00:40:41;;;;;;;66.20;37.73;;;;;;;;;;5104045;28;20182;-68
2022/12/13 00:43:07;;;;;;;58.97;34.00;;;;;;;;;;5102515;28;20203;-68
2022/12/13 00:45:33;;;;;;;68.83;36.20;;;;;;;;;;5100595;28;20183;-69
2022/12/13 00:47:59;;;;;;;64.00;36.33;;;;;;;;;;5101788;28;20173;-69
2022/12/13 00:50:25;;;;;;;66.23;36.07;;;;;;;;;;5099143;28;20420;-68
2022/12/13 00:52:51;;;;;;;59.43;33.97;;;;;;;;;;5099367;28;20411;-69
2022/12/13 00:55:17;;;;;;;57.70;34.10;;;;;;;;;;5097548;28;20450;-68
2022/12/13 00:57:43;;;;;;;64.37;35.17;;;;;;;;;;5096863;28;20193;-69
2022/12/13 01:00:09;;;;;;;63.37;36.10;;;;;;;;;;5097896;28;21265;-68
2022/12/13 01:02:35;;;;;;;65.87;37.60;;;;;;;;;;5097214;28;21048;-68
2022/12/13 01:05:01;;;;;;;60.07;36.73;;;;;;;;;;5096172;28;20416;-68
2022/12/13 01:07:27;;;;;;;69.03;37.23;;;;;;;;;;5095760;28;20475;-68
2022/12/13 01:09:53;;;;;;;62.97;34.57;;;;;;;;;;5097261;28;20800;-69
2022/12/13 01:12:19;;;;;;;65.33;35.50;;;;;;;;;;5096343;28;20622;-68
2022/12/13 01:14:45;;;;;;;67.93;37.03;;;;;;;;;;5097221;28;20661;-69
2022/12/13 01:17:11;;;;;;;62.77;35.80;;;;;;;;;;5097103;28;20470;-68
2022/12/13 01:19:37;;;;;;;57.93;35.83;;;;;;;;;;5096522;28;20432;-68
2022/12/13 01:22:04;;;;;;;66.27;36.20;;;;;;;;;;5096859;28;20204;-67
2022/12/13 01:24:31;;;;;;;58.13;33.83;;;;;;;;;;5095167;28;20216;-69
2022/12/13 01:26:57;;;;;;;66.60;36.03;;;;;;;;;;5096576;28;20395;-69
2022/12/13 01:29:24;;;;;;;60.90;36.20;;;;;;;;;;5095805;28;20879;-68
2022/12/13 01:31:50;;;;;;;57.23;33.90;;;;;;;;;;5098078;28;20412;-68
2022/12/13 01:34:17;;;;;;;65.03;35.00;;;;;;;;;;5097227;28;20420;-68
2022/12/13 01:36:44;;;;;;;59.10;34.73;;;;;;;;;;5100103;28;20186;-67
2022/12/13 01:39:12;;;;;;;61.57;33.70;;;;;;;;;;5104928;28;20439;-68
2022/12/13 01:41:38;;;;;;;53.03;31.63;;;;;;;;;;5096716;28;20548;-68
2022/12/13 01:44:24;;;;;;;55.10;32.37;;;;;;;;;;5096257;28;20454;-68
2022/12/13 01:46:50;;;;;;;54.37;31.33;;;;;;;;;;5094350;28;20411;-73
2022/12/13 01:49:17;;;;;;;59.77;32.93;;;;;;;;;;5094718;28;20500;-71
2022/12/13 01:51:55;;;;;;;54.93;30.70;;;;;;;;;;5095267;28;20188;-72
2022/12/13 01:54:24;;;;;;;51.37;30.07;;;;;;;;;;5093683;28;20416;-72
2022/12/13 01:56:52;;;;;;;56.77;31.83;;;;;;;;;;5094780;28;20492;-71
2022/12/13 01:59:19;;;;;;;52.83;28.17;;;;;;;;;;5094253;28;20526;-72
2022/12/13 02:01:46;;;;;;;50.77;30.43;;;;;;;;;;5094829;28;20841;-71
2022/12/13 02:04:12;;;;;;;54.50;30.53;;;;;;;;;;5096346;28;20408;-72
2022/12/13 02:06:42;;;;;;;54.07;31.03;;;;;;;;;;5095896;28;20420;-72
2022/12/13 02:09:08;;;;;;;56.57;30.90;;;;;;;;;;5095509;28;20689;-72
2022/12/13 02:11:35;;;;;;;57.47;32.40;;;;;;;;;;5095010;28;20419;-71
2022/12/13 02:14:02;;;;;;;63.63;34.57;;;;;;;;;;5095071;28;20472;-72
2022/12/13 02:16:46;;;;;;;57.00;33.37;;;;;;;;;;5094391;28;20414;-71
2022/12/13 02:19:15;;;;;;;60.17;32.60;;;;;;;;;;5096136;28;20437;-71
2022/12/13 02:21:51;;;;;;;54.03;30.77;;;;;;;;;;5095864;28;20935;-72
2022/12/13 02:24:23;;;;;;;58.37;32.30;;;;;;;;;;5094841;28;20505;-71
2022/12/13 02:27:03;;;;;;;55.43;31.93;;;;;;;;;;5096572;28;20410;-71
2022/12/13 02:29:29;;;;;;;61.50;34.70;;;;;;;;;;5094607;28;20466;-72
2022/12/13 02:32:01;;;;;;;61.03;34.07;;;;;;;;;;5094826;28;20413;-72
2022/12/13 02:34:33;;;;;;;53.30;31.97;;;;;;;;;;5095028;28;20184;-71
2022/12/13 02:37:07;;;;;;;62.57;34.63;;;;;;;;;;5096317;28;20911;-71
2022/12/13 02:39:34;;;;;;;59.57;34.93;;;;;;;;;;5095920;28;20432;-70
2022/12/13 02:42:01;;;;;;;72.97;37.63;;;;;;;;;;5097198;28;20460;-71
2022/12/13 02:44:27;;;;;;;59.13;32.53;;;;;;;;;;5094059;28;20479;-69
2022/12/13 02:47:02;;;;;;;68.23;35.97;;;;;;;;;;5094573;28;20838;-71
2022/12/13 02:49:30;;;;;;;61.33;33.97;;;;;;;;;;5095956;28;20779;-70
2022/12/13 02:51:57;;;;;;;72.13;39.03;;;;;;;;;;5095919;28;20444;-71
2022/12/13 02:54:24;;;;;;;81.03;39.57;;;;;;;;;;5095717;28;20409;-71
2022/12/13 02:56:56;;;;;;;83.83;42.83;;;;;;;;;;5094299;28;20836;-70
2022/12/13 02:59:24;;;;;;;80.37;44.60;;;;;;;;;;5096930;28;20520;-70
2022/12/13 03:01:53;;;;;;;84.10;44.13;;;;;;;;;;5095200;28;20448;-71
2022/12/13 03:04:31;;;;;;;68.67;38.10;;;;;;;;;;5095957;28;20437;-70
2022/12/13 03:07:06;;;;;;;80.70;43.07;;;;;;;;;;5099389;28;20415;-70
2022/12/13 03:10:02;;;;;;;72.00;40.23;;;;;;;;;;5098748;28;20437;-70
2022/12/13 03:15:25;;;;;;;73.80;40.73;;;;;;;;;;5100135;28;20385;-70
2022/12/13 03:17:56;;;;;;;70.60;38.13;;;;;;;;;;5098889;28;20510;-70
2022/12/13 03:20:23;;;;;;;69.30;38.73;;;;;;;;;;5098974;28;20776;-70
2022/12/13 03:22:50;;;;;;;70.60;39.53;;;;;;;;;;5098914;28;20522;-69
2022/12/13 03:25:16;;;;;;;72.07;42.13;;;;;;;;;;5099032;28;20545;-70
2022/12/13 03:27:42;;;;;;;77.53;40.80;;;;;;;;;;5100762;28;20415;-70
2022/12/13 03:30:08;;;;;;;76.37;39.97;;;;;;;;;;5099641;28;20304;-71
2022/12/13 03:32:34;;;;;;;71.37;39.43;;;;;;;;;;5099039;28;20481;-71
2022/12/13 03:35:00;;;;;;;71.90;40.37;;;;;;;;;;5102716;28;20422;-71
2022/12/13 03:37:26;;;;;;;71.40;37.30;;;;;;;;;;5097348;28;20187;-70
2022/12/13 03:39:52;;;;;;;69.97;37.30;;;;;;;;;;5098534;28;20264;-70
2022/12/13 03:42:18;;;;;;;64.30;36.07;;;;;;;;;;5097975;28;21045;-69
2022/12/13 03:44:44;;;;;;;67.57;35.50;;;;;;;;;;5098621;28;20758;-71
2022/12/13 03:47:10;;;;;;;65.87;36.60;;;;;;;;;;5099254;28;20416;-71
2022/12/13 03:49:36;;;;;;;64.97;36.93;;;;;;;;;;5098447;28;20199;-71
2022/12/13 03:52:02;;;;;;;64.70;36.23;;;;;;;;;;5097073;28;20215;-70
2022/12/13 03:54:28;;;;;;;62.67;35.90;;;;;;;;;;5097980;28;20175;-70
2022/12/13 03:56:54;;;;;;;68.03;35.97;;;;;;;;;;5099197;28;20442;-70
2022/12/13 03:59:20;;;;;;;68.47;35.27;;;;;;;;;;5111175;28;20582;-69
2022/12/13 04:01:47;;;;;;;63.37;35.57;;;;;;;;;;5110913;28;20211;-70
2022/12/13 04:04:13;;;;;;;63.87;35.20;;;;;;;;;;5100567;28;20426;-71
2022/12/13 04:06:39;;;;;;;69.23;37.53;;;;;;;;;;5100583;28;20966;-70
2022/12/13 04:09:05;;;;;;;65.50;36.57;;;;;;;;;;5100925;28;20199;-70
2022/12/13 04:14:15;;;;;;;64.20;35.13;;;;;;;;;;5099912;28;20230;-70
2022/12/13 04:16:41;;;;;;;61.17;34.43;;;;;;;;;;5100518;28;20409;-70
2022/12/13 04:19:07;;;;;;;61.03;33.57;;;;;;;;;;5101711;28;20224;-70
2022/12/13 04:21:33;;;;;;;65.20;33.80;;;;;;;;;;5100595;28;20175;-70
2022/12/13 04:23:59;;;;;;;61.13;33.80;;;;;;;;;;5098251;28;20601;-70
2022/12/13 04:26:25;;;;;;;61.93;32.67;;;;;;;;;;5101194;28;20180;-71
2022/12/13 04:28:51;;;;;;;61.10;33.50;;;;;;;;;;5098173;28;20615;-71
2022/12/13 04:31:17;;;;;;;62.63;33.70;;;;;;;;;;5099933;28;20657;-71
2022/12/13 04:33:43;;;;;;;55.73;31.93;;;;;;;;;;5098791;28;20589;-71
2022/12/13 04:36:09;;;;;;;59.37;32.23;;;;;;;;;;5097855;28;20196;-71
2022/12/13 04:38:35;;;;;;;59.20;33.07;;;;;;;;;;5096141;28;20438;-69
2022/12/13 04:41:05;;;;;;;57.70;33.67;;;;;;;;;;5098836;28;20415;-70
2022/12/13 04:43:31;;;;;;;59.97;34.43;;;;;;;;;;5097446;28;20218;-71
2022/12/13 04:45:57;;;;;;;66.30;35.77;;;;;;;;;;5099504;28;20421;-71
2022/12/13 04:48:23;;;;;;;59.83;33.67;;;;;;;;;;5098955;28;20195;-71
2022/12/13 04:50:49;;;;;;;60.43;33.13;;;;;;;;;;5101039;28;20417;-71
2022/12/13 04:53:15;;;;;;;61.63;33.13;;;;;;;;;;5097957;28;20408;-69
2022/12/13 04:55:41;;;;;;;58.83;32.57;;;;;;;;;;5100288;28;20426;-70
2022/12/13 04:58:07;;;;;;;59.80;33.90;;;;;;;;;;5100379;28;20185;-70
2022/12/13 05:00:33;;;;;;;60.03;33.87;;;;;;;;;;5099938;28;20838;-70
2022/12/13 05:02:59;;;;;;;58.13;32.30;;;;;;;;;;5100272;28;20707;-69
2022/12/13 05:05:25;;;;;;;56.83;32.00;;;;;;;;;;5098857;28;20188;-70
2022/12/13 05:07:51;;;;;;;55.27;32.87;;;;;;;;;;5099360;28;20408;-70
2022/12/13 05:10:17;;;;;;;55.93;31.43;;;;;;;;;;5102211;28;20406;-70
2022/12/13 05:12:43;;;;;;;57.87;32.20;;;;;;;;;;5099987;28;20188;-70
2022/12/13 05:15:09;;;;;;;55.13;30.83;;;;;;;;;;5104732;28;20171;-70
2022/12/13 05:17:35;;;;;;;57.70;31.23;;;;;;;;;;5104657;28;20572;-71
2022/12/13 05:20:01;;;;;;;63.93;34.27;;;;;;;;;;5101092;28;20215;-71
2022/12/13 05:22:27;;;;;;;61.07;31.03;;;;;;;;;;5099545;28;20204;-71
2022/12/13 05:24:53;;;;;;;54.27;31.37;;;;;;;;;;5102304;28;20460;-71
2022/12/13 05:27:19;;;;;;;58.83;32.40;;;;;;;;;;5104874;28;20495;-71
2022/12/13 05:29:45;;;;;;;55.07;31.07;;;;;;;;;;5105354;28;20219;-70
2022/12/13 05:32:11;;;;;;;58.77;32.43;;;;;;;;;;5102580;28;20409;-71
2022/12/13 05:34:37;;;;;;;52.37;30.80;;;;;;;;;;5095258;28;20555;-70
2022/12/13 05:37:03;;;;;;;59.40;32.70;;;;;;;;;;5095141;28;20612;-70
2022/12/13 05:39:29;;;;;;;51.87;32.17;;;;;;;;;;5095986;28;20261;-70
2022/12/13 05:41:55;;;;;;;55.70;31.43;;;;;;;;;;5094794;28;20449;-70
2022/12/13 05:44:21;;;;;;;63.70;33.47;;;;;;;;;;5095652;28;20483;-71
2022/12/13 05:46:47;;;;;;;54.83;31.63;;;;;;;;;;5096345;28;20412;-71
2022/12/13 05:49:13;;;;;;;54.37;30.97;;;;;;;;;;5096026;28;20435;-71
2022/12/13 05:51:39;;;;;;;63.17;34.87;;;;;;;;;;5096493;28;20170;-71
2022/12/13 05:54:05;;;;;;;72.37;37.00;;;;;;;;;;5095929;28;20184;-70
2022/12/13 05:56:31;;;;;;;64.47;36.07;;;;;;;;;;5095770;28;20180;-70
2022/12/13 05:58:57;;;;;;;60.20;36.00;;;;;;;;;;5095671;28;20207;-72
2022/12/13 06:01:23;;;;;;;64.83;35.03;;;;;;;;;;5094781;28;20176;-70
2022/12/13 06:03:49;;;;;;;69.00;36.50;;;;;;;;;;5094716;28;20990;-71
2022/12/13 06:06:16;;;;;;;65.23;36.93;;;;;;;;;;5096323;28;20663;-70
2022/12/13 06:08:42;;;;;;;66.30;34.90;;;;;;;;;;5096356;28;20194;-70
2022/12/13 06:11:08;;;;;;;62.87;35.53;;;;;;;;;;5093551;28;20423;-70
2022/12/13 06:13:34;;;;;;;61.90;35.37;;;;;;;;;;5093795;28;20245;-71
2022/12/13 06:16:01;;;;;;;62.67;35.63;;;;;;;;;;5094323;28;20182;-70
2022/12/13 06:18:28;;;;;;;60.33;34.47;;;;;;;;;;5096343;28;20694;-71
2022/12/13 06:20:57;;;;;;;59.73;34.40;;;;;;;;;;5107268;28;20411;-71
2022/12/13 06:23:23;;;;;;;68.87;34.43;;;;;;;;;;5110569;28;20944;-71
2022/12/13 06:25:49;;;;;;;64.80;35.63;;;;;;;;;;5096369;28;20409;-71
2022/12/13 06:28:16;;;;;;;61.87;34.73;;;;;;;;;;5095839;28;20529;-70
2022/12/13 06:30:42;;;;;;;61.00;33.80;;;;;;;;;;5096243;28;20207;-71
2022/12/13 06:33:09;;;;;;;63.83;35.23;;;;;;;;;;5095919;28;20913;-71
2022/12/13 06:35:35;;;;;;;62.00;34.43;;;;;;;;;;5096630;28;20189;-70
2022/12/13 06:38:01;;;;;;;65.23;35.20;;;;;;;;;;5097307;28;20431;-71
2022/12/13 06:40:27;;;;;;;58.67;33.70;;;;;;;;;;5095708;28;20531;-70
2022/12/13 06:42:53;;;;;;;68.53;36.30;;;;;;;;;;5096133;28;20565;-71
2022/12/13 06:45:19;;;;;;;65.50;34.90;;;;;;;;;;5094136;28;20191;-69
2022/12/13 06:47:45;;;;;;;63.07;35.27;;;;;;;;;;5094537;28;20413;-70
2022/12/13 06:50:11;;;;;;;63.80;35.17;;;;;;;;;;5096742;28;20188;-70
2022/12/13 06:52:37;;;;;;;59.63;33.27;;;;;;;;;;5097268;28;20191;-71
2022/12/13 06:55:04;;;;;;;63.17;34.20;;;;;;;;;;5098037;28;20186;-71
2022/12/13 06:57:31;;;;;;;65.37;35.87;;;;;;;;;;5098372;28;20192;-70
2022/12/13 06:59:57;;;;;;;64.97;35.63;;;;;;;;;;5095551;28;20820;-69
2022/12/13 07:02:23;;;;;;;60.53;36.23;;;;;;;;;;5094767;28;20841;-70
2022/12/13 07:04:49;;;;;;;64.17;36.87;;;;;;;;;;5095618;28;20411;-69
2022/12/13 07:07:15;;;;;;;67.37;36.80;;;;;;;;;;5095558;28;20401;-70
2022/12/13 07:09:41;;;;;;;63.90;35.87;;;;;;;;;;5094685;28;20240;-70
2022/12/13 07:12:07;;;;;;;62.70;34.70;;;;;;;;;;5095655;28;20416;-70
2022/12/13 07:14:33;;;;;;;63.53;34.83;;;;;;;;;;5096772;28;20263;-70
2022/12/13 07:16:59;;;;;;;63.63;35.87;;;;;;;;;;5095277;28;20184;-71
2022/12/13 07:19:25;;;;;;;61.23;35.07;;;;;;;;;;5096482;28;20228;-70
2022/12/13 07:21:52;;;;;;;61.03;34.03;;;;;;;;;;5096167;28;20183;-70
2022/12/13 07:24:18;;;;;;;63.67;33.97;;;;;;;;;;5094764;28;20698;-70
2022/12/13 07:26:43;;;;;;;63.50;33.83;;;;;;;;;;5094033;28;21001;-70
2022/12/13 07:29:09;;;;;;;62.73;34.13;;;;;;;;;;5093650;28;20470;-70
2022/12/13 07:31:36;;;;;;;60.87;34.10;;;;;;;;;;5094918;28;20543;-70
2022/12/13 07:34:02;;;;;;;61.80;33.43;;;;;;;;;;5093212;28;20179;-70
2022/12/13 07:36:28;;;;;;;61.60;33.33;;;;;;;;;;5094830;28;20449;-70
2022/12/13 07:38:55;;;;;;;57.07;33.20;;;;;;;;;;5094461;28;20431;-70
2022/12/13 07:41:24;;;;;;;63.10;33.23;;;;;;;;;;5094155;28;20315;-70
2022/12/13 07:43:54;;;;;;;58.20;33.47;;;;;;;;;;5093107;28;20491;-70
2022/12/13 07:46:20;;;;;;;56.70;32.20;;;;;;;;;;5093450;28;20421;-70
2022/12/13 07:48:46;;;;;;;56.57;32.40;;;;;;;;;;5092870;28;20436;-71
2022/12/13 07:51:12;;;;;;;58.63;33.57;;;;;;;;;;5093014;28;20421;-70
2022/12/13 07:53:39;;;;;;;57.23;32.40;;;;;;;;;;5095858;28;20183;-71
2022/12/13 07:56:05;;;;;;;59.43;33.60;;;;;;;;;;5096793;28;20876;-71
2022/12/13 07:58:34;;;;;;;58.80;32.97;;;;;;;;;;5096622;28;20438;-69
2022/12/13 08:01:01;;;;;;;58.23;32.83;;;;;;;;;;5098111;28;20423;-70
2022/12/13 08:03:28;;;;;;;56.33;32.70;;;;;;;;;;5098172;28;20494;-70
2022/12/13 08:06:07;;;;;;;64.67;35.20;;;;;;;;;;5098357;28;20411;-70
2022/12/13 08:08:34;;;;;;;54.80;32.23;;;;;;;;;;5097540;28;20426;-70
2022/12/13 08:11:01;;;;;;;64.50;35.03;;;;;;;;;;5097909;28;20913;-70
2022/12/13 08:13:27;;;;;;;61.40;33.37;;;;;;;;;;5097599;28;20414;-70
2022/12/13 08:15:58;;;;;;;61.93;35.57;;;;;;;;;;5097276;28;20420;-70
2022/12/13 08:18:24;;;;;;;67.20;35.97;;;;;;;;;;5096710;28;20251;-70
2022/12/13 08:20:49;;;;;;;63.07;36.70;;;;;;;;;;5096146;28;20498;-70
2022/12/13 08:23:15;;;;;;;59.33;34.90;;;;;;;;;;5096959;28;20242;-70
2022/12/13 08:25:41;;;;;;;61.33;35.40;;;;;;;;;;5096068;28;20178;-70
2022/12/13 08:28:07;;;;;;;58.73;33.47;;;;;;;;;;5096873;28;20181;-70
2022/12/13 08:30:34;;;;;;;55.57;32.77;;;;;;;;;;5097164;28;20256;-71
2022/12/13 08:32:59;;;;;;;51.60;31.23;;;;;;;;;;5096896;28;20173;-71
2022/12/13 08:35:29;;;;;;;56.77;31.87;;;;;;;;;;5095731;28;20435;-71
2022/12/13 08:37:54;;;;;;;59.57;31.90;;;;;;;;;;5097099;28;20232;-71
2022/12/13 08:40:20;;;;;;;49.07;29.97;;;;;;;;;;5104267;28;20413;-71
2022/12/13 08:42:46;;;;;;;49.07;30.23;;;;;;;;;;5105210;28;20673;-71
2022/12/13 08:45:13;;;;;;;51.63;31.83;;;;;;;;;;5097905;28;20634;-70
2022/12/13 08:47:39;;;;;;;50.30;30.73;;;;;;;;;;5097545;28;20169;-70
2022/12/13 08:50:05;;;;;;;52.80;30.63;;;;;;;;;;5096763;28;20430;-70
2022/12/13 08:52:31;;;;;;;50.30;30.63;;;;;;;;;;5097527;28;20502;-70
2022/12/13 08:54:57;;;;;;;45.53;29.17;;;;;;;;;;5097228;28;20752;-70
2022/12/13 08:57:23;;;;;;;49.57;28.50;;;;;;;;;;5097345;28;20420;-70
2022/12/13 08:59:49;;;;;;;43.80;28.13;;;;;;;;;;5095353;28;20226;-70
2022/12/13 09:02:16;;;;;;;45.10;28.90;;;;;;;;;;5095701;28;20418;-70
2022/12/13 09:04:42;;;;;;;48.63;28.60;;;;;;;;;;5095572;28;20183;-71
2022/12/13 09:07:08;;;;;;;42.50;27.43;;;;;;;;;;5096181;28;20446;-70
2022/12/13 09:09:34;;;;;;;47.83;28.07;;;;;;;;;;5098108;28;20432;-71
2022/12/13 09:12:00;;;;;;;44.07;26.77;;;;;;;;;;5096324;28;20181;-70
2022/12/13 09:14:26;;;;;;;46.00;28.33;;;;;;;;;;5095260;28;20184;-70
2022/12/13 09:16:53;;;;;;;41.13;25.83;;;;;;;;;;5095309;28;20209;-70
2022/12/13 09:19:19;;;;;;;42.43;25.07;;;;;;;;;;5096851;28;20429;-71
2022/12/13 09:21:44;;;;;;;39.23;26.00;;;;;;;;;;5097681;28;20431;-71
2022/12/13 09:24:10;;;;;;;36.90;25.27;;;;;;;;;;5098620;28;20459;-72
2022/12/13 09:26:36;;;;;;;39.57;24.77;;;;;;;;;;5096367;28;20677;-71
2022/12/13 09:29:02;;;;;;;40.33;24.77;;;;;;;;;;5095335;28;20774;-71
2022/12/13 09:31:28;;;;;;;42.97;26.37;;;;;;;;;;5097062;28;20181;-72
2022/12/13 09:33:54;;;;;;;40.93;24.80;;;;;;;;;;5097406;28;20202;-71
2022/12/13 09:36:21;;;;;;;40.17;25.67;;;;;;;;;;5097332;28;20183;-70
2022/12/13 09:38:47;;;;;;;38.27;24.43;;;;;;;;;;5095256;28;20227;-70
2022/12/13 09:41:13;;;;;;;34.00;23.37;;;;;;;;;;5097203;28;20418;-70
2022/12/13 09:43:40;;;;;;;35.47;22.20;;;;;;;;;;5096431;28;20200;-70
2022/12/13 09:46:08;;;;;;;34.53;23.03;;;;;;;;;;5096495;28;20414;-71
2022/12/13 09:48:35;;;;;;;36.23;23.17;;;;;;;;;;5095106;28;20431;-70
2022/12/13 09:51:02;;;;;;;36.17;22.90;;;;;;;;;;5095859;28;20433;-75
2022/12/13 09:53:28;;;;;;;38.20;22.67;;;;;;;;;;5094896;28;20942;-70
2022/12/13 09:55:54;;;;;;;32.80;21.53;;;;;;;;;;5095867;28;20413;-71
2022/12/13 09:58:21;;;;;;;35.93;22.63;;;;;;;;;;5094855;28;21037;-70
2022/12/13 10:00:48;;;;;;;37.50;23.43;;;;;;;;;;5096044;28;20410;-71
2022/12/13 10:03:15;;;;;;;33.67;22.03;;;;;;;;;;5096112;28;20553;-72
2022/12/13 10:05:44;;;;;;;32.53;21.00;;;;;;;;;;5094863;28;20458;-70
2022/12/13 10:08:14;;;;;;;34.57;22.33;;;;;;;;;;5094618;28;20850;-70
2022/12/13 10:10:41;;;;;;;33.53;21.70;;;;;;;;;;5096041;28;20402;-71
2022/12/13 10:13:16;;;;;;;33.00;21.87;;;;;;;;;;5094908;28;20419;-71
2022/12/13 10:15:45;;;;;;;27.93;20.00;;;;;;;;;;5093737;28;20561;-71
2022/12/13 10:18:14;;;;;;;31.20;20.47;;;;;;;;;;5095773;28;20827;-71
2022/12/13 10:20:40;;;;;;;31.63;21.07;;;;;;;;;;5093866;28;20417;-71
2022/12/13 10:23:06;;;;;;;32.43;21.10;;;;;;;;;;5094732;28;20541;-71
2022/12/13 10:25:53;;;;;;;32.30;20.33;;;;;;;;;;5095857;28;20408;-72
2022/12/13 10:28:25;;;;;;;32.47;20.77;;;;;;;;;;5094526;28;20585;-70
2022/12/13 10:30:51;;;;;;;33.37;20.30;;;;;;;;;;5096097;28;20388;-71
2022/12/13 10:33:28;;;;;;;32.20;20.77;;;;;;;;;;5095378;28;20486;-71
2022/12/13 10:36:21;;;;;;;30.00;19.07;;;;;;;;;;5095180;28;20751;-71
2022/12/13 10:38:47;;;;;;;28.60;19.40;;;;;;;;;;5078586;28;20842;-71
2022/12/13 10:41:33;;;;;;;32.50;20.20;;;;;;;;;;5095011;28;20453;-70
2022/12/13 10:44:11;;;;;;;28.20;18.90;;;;;;;;;;5094650;28;20206;-72
2022/12/13 10:46:42;;;;;;;29.50;19.07;;;;;;;;;;5095135;28;20416;-71
2022/12/13 10:49:19;;;;;;;31.13;18.53;;;;;;;;;;5094708;28;20441;-71
2022/12/13 10:51:45;;;;;;;25.80;18.87;;;;;;;;;;5094973;28;20823;-71
2022/12/13 10:54:15;;;;;;;27.73;19.37;;;;;;;;;;5095250;28;20475;-71
2022/12/13 10:56:45;;;;;;;27.17;17.50;;;;;;;;;;5095814;28;20915;-72
2022/12/13 10:59:22;;;;;;;27.23;16.97;;;;;;;;;;5096079;28;20445;-72
2022/12/13 11:01:48;;;;;;;29.83;18.33;;;;;;;;;;5095018;28;20400;-71
2022/12/13 11:04:20;;;;;;;29.33;17.80;;;;;;;;;;5093537;28;20477;-72
2022/12/13 11:06:47;;;;;;;24.47;17.33;;;;;;;;;;5095883;28;20431;-72
2022/12/13 11:09:23;;;;;;;29.17;18.10;;;;;;;;;;5095509;28;20803;-71
2022/12/13 11:11:51;;;;;;;30.63;18.20;;;;;;;;;;5094564;28;20391;-72
2022/12/13 11:14:18;;;;;;;26.80;16.40;;;;;;;;;;5095087;28;20414;-72
2022/12/13 11:16:44;;;;;;;29.13;16.57;;;;;;;;;;5095607;28;20413;-70
2022/12/13 11:19:22;;;;;;;30.03;18.00;;;;;;;;;;5096596;28;20794;-71
2022/12/13 11:21:49;;;;;;;32.47;19.73;;;;;;;;;;5094165;28;20930;-71
2022/12/13 11:24:29;;;;;;;34.63;19.93;;;;;;;;;;5093337;28;20486;-72
2022/12/13 11:27:21;;;;;;;34.30;19.90;;;;;;;;;;5094587;28;20433;-72
2022/12/13 11:29:55;;;;;;;27.30;18.10;;;;;;;;;;5097419;28;20470;-71
2022/12/13 11:32:30;;;;;;;27.80;18.90;;;;;;;;;;5099297;28;20403;-71
2022/12/13 11:35:08;;;;;;;32.50;20.40;;;;;;;;;;5100307;28;20967;-70
2022/12/13 11:37:47;;;;;;;27.47;18.13;;;;;;;;;;5097431;28;20407;-71
2022/12/13 11:40:16;;;;;;;26.50;16.50;;;;;;;;;;5097839;28;20911;-69
2022/12/13 11:42:44;;;;;;;25.37;15.90;;;;;;;;;;5098450;28;20466;-70
2022/12/13 11:45:10;;;;;;;26.20;16.57;;;;;;;;;;5098659;28;20926;-71
2022/12/13 11:47:43;;;;;;;32.60;17.70;;;;;;;;;;5098062;28;20411;-72
2022/12/13 11:50:33;;;;;;;25.03;16.57;;;;;;;;;;5098877;28;20621;-70
2022/12/13 11:52:59;;;;;;;31.73;16.23;;;;;;;;;;5094557;28;20429;-72
2022/12/13 11:55:35;;;;;;;23.53;16.60;;;;;;;;;;5098082;28;20477;-71
2022/12/13 11:58:06;;;;;;;24.77;16.63;;;;;;;;;;5100297;28;20414;-71
2022/12/13 12:00:38;;;;;;;23.43;16.03;;;;;;;;;;5098116;28;20414;-71
2022/12/13 12:03:23;;;;;;;27.67;14.83;;;;;;;;;;5099729;28;20454;-75
2022/12/13 12:05:51;;;;;;;23.93;16.60;;;;;;;;;;5097615;28;20498;-70
2022/12/13 12:08:28;;;;;;;23.83;16.50;;;;;;;;;;5098106;28;20435;-72
2022/12/13 12:11:03;;;;;;;25.53;15.63;;;;;;;;;;5099935;28;20407;-72
2022/12/13 12:13:32;;;;;;;29.17;18.07;;;;;;;;;;5099081;28;20486;-72
2022/12/13 12:16:06;;;;;;;43.47;23.50;;;;;;;;;;5100188;28;20399;-72
2022/12/13 12:18:32;;;;;;;25.17;14.57;;;;;;;;;;5098317;28;20443;-71
2022/12/13 12:21:01;;;;;;;19.17;14.03;;;;;;;;;;5096940;28;20467;-72
2022/12/13 12:23:36;;;;;;;22.67;14.93;;;;;;;;;;5096414;28;20470;-72
2022/12/13 12:26:07;;;;;;;23.57;14.50;;;;;;;;;;5097325;28;20487;-72
2022/12/13 12:28:36;;;;;;;22.73;13.63;;;;;;;;;;5098572;28;20481;-72
2022/12/13 12:31:05;;;;;;;23.27;14.27;;;;;;;;;;5099478;28;20405;-71
2022/12/13 12:33:42;;;;;;;19.37;14.23;;;;;;;;;;5113682;22;20494;-68
2022/12/13 12:36:15;;;;;;;23.17;13.50;;;;;;;;;;5079119;28;20497;-69
2022/12/13 12:39:00;;;;;;;21.00;13.13;;;;;;;;;;5096949;28;20402;-69
2022/12/13 12:41:45;;;;;;;21.00;14.17;;;;;;;;;;5079096;28;20411;-70
2022/12/13 12:44:30;;;;;;;18.60;12.97;;;;;;;;;;5078758;28;20470;-69
2022/12/13 12:47:09;;;;;;;17.80;12.43;;;;;;;;;;5097097;28;20396;-70
2022/12/13 12:49:35;;;;;;;19.40;12.23;;;;;;;;;;5097064;28;20394;-70
2022/12/13 12:52:12;;;;;;;19.90;13.00;;;;;;;;;;5096714;28;20402;-70
2022/12/13 12:54:43;;;;;;;21.13;12.93;;;;;;;;;;5096589;28;20172;-70
2022/12/13 12:57:09;;;;;;;20.87;13.07;;;;;;;;;;5078107;28;20408;-69
2022/12/13 12:59:54;;;;;;;19.47;12.27;;;;;;;;;;5097131;28;20412;-69
2022/12/13 13:02:37;;;;;;;17.83;11.70;;;;;;;;;;5100752;28;20438;-69
2022/12/13 13:05:12;;;;;;;19.83;11.67;;;;;;;;;;5077443;28;20494;-70
2022/12/13 13:07:43;;;;;;;17.33;11.63;;;;;;;;;;5095753;28;20955;-69
2022/12/13 13:10:09;;;;;;;23.10;12.17;;;;;;;;;;5077355;28;20403;-70
2022/12/13 13:12:38;;;;;;;16.30;11.13;;;;;;;;;;5077155;28;20432;-70
2022/12/13 13:15:24;;;;;;;15.67;10.63;;;;;;;;;;5077555;28;20426;-71
2022/12/13 13:17:50;;;;;;;17.13;11.40;;;;;;;;;;5076826;28;20415;-70
2022/12/13 13:20:17;;;;;;;15.67;11.13;;;;;;;;;;5095057;28;20422;-70
2022/12/13 13:22:43;;;;;;;14.73;10.23;;;;;;;;;;5076927;28;20296;-71
2022/12/13 13:25:09;;;;;;;19.10;11.50;;;;;;;;;;5096989;28;20399;-70
2022/12/13 13:27:40;;;;;;;18.40;11.70;;;;;;;;;;5095314;28;20400;-70
2022/12/13 13:30:07;;;;;;;20.10;11.30;;;;;;;;;;5095436;28;20617;-70
2022/12/13 13:32:35;;;;;;;17.10;10.67;;;;;;;;;;5076645;28;20455;-71
2022/12/13 13:35:19;;;;;;;15.83;11.20;;;;;;;;;;5094960;28;20497;-70
2022/12/13 13:37:47;;;;;;;15.93;10.73;;;;;;;;;;5094829;28;20414;-70
2022/12/13 13:40:16;;;;;;;14.97;10.50;;;;;;;;;;5095205;28;20775;-70
2022/12/13 13:43:00;;;;;;;15.33;10.53;;;;;;;;;;5076701;28;20523;-70
2022/12/13 13:45:26;;;;;;;18.33;11.10;;;;;;;;;;5094683;28;20407;-70
2022/12/13 13:48:06;;;;;;;20.87;11.27;;;;;;;;;;5076989;28;20439;-70
2022/12/13 13:50:47;;;;;;;42.70;21.70;;;;;;;;;;5093793;28;20387;-70
2022/12/13 13:53:33;;;;;;;26.10;14.73;;;;;;;;;;5076575;28;20484;-70
2022/12/13 13:56:10;;;;;;;19.90;11.90;;;;;;;;;;5076361;28;21015;-71
2022/12/13 13:58:38;;;;;;;18.70;11.90;;;;;;;;;;5094764;28;20406;-70
2022/12/13 14:01:08;;;;;;;15.83;10.93;;;;;;;;;;5094786;28;20421;-70
2022/12/13 14:03:46;;;;;;;20.37;12.97;;;;;;;;;;5076361;28;20539;-71
2022/12/13 14:06:27;;;;;;;19.00;12.07;;;;;;;;;;5094995;28;20399;-71
2022/12/13 14:09:12;;;;;;;19.83;12.83;;;;;;;;;;5094830;28;20495;-70
2022/12/13 14:11:56;;;;;;;18.77;11.50;;;;;;;;;;5094576;28;20805;-70
2022/12/13 14:14:40;;;;;;;19.47;11.37;;;;;;;;;;5076416;28;20395;-71
2022/12/13 14:17:23;;;;;;;16.93;11.73;;;;;;;;;;5095414;28;20402;-70
2022/12/13 14:20:03;;;;;;;18.93;11.93;;;;;;;;;;5094925;28;20941;-70
2022/12/13 14:22:34;;;;;;;19.67;11.97;;;;;;;;;;5075877;28;20430;-70
2022/12/13 14:25:00;;;;;;;17.20;12.27;;;;;;;;;;5076621;28;20755;-70
2022/12/13 14:27:32;;;;;;;16.50;11.17;;;;;;;;;;5076186;28;20413;-70
2022/12/13 14:29:58;;;;;;;20.00;11.40;;;;;;;;;;5076317;28;20173;-70
2022/12/13 14:32:26;;;;;;;17.10;11.53;;;;;;;;;;5093813;28;20508;-70